Central Sonoma County Latest

37 Stations

15 Minute Data | America/Los_Angeles
as of 9/5/26 6:44 AM PDT
Station Date Time Temp (°F) RH (%) Dew Pt (°F) Wind Spd (mph) Wind Dir (°) Wind Gust (mph) Latest Rain (In) Daily Rain (In) Daily Max Temp (°F) Daily Min Temp (°F)
Windsor-NW (Ranch 8) 9/5/26 0630 51.7   2.2 88   2 48.2   2.6 0.0   0.0 NNW | 337 0.0   0.0 0.00 0.00 54.3   2.0 50.8   3.0
Windsor-East (Ranch 16) 9/5/26 0630 44.8   9.2 100   0 44.7   9.2 0.1   0.0 ESE | 102 0.9   0.2 0.00 0.00 50.5   4.4 44.3   5.1
Mark West-North (Ranch 14) 9/5/26 0630 45.8   8.6 96   1 44.9   9.0 0.0   0.2 N | 0 0.0   1.4 0.00 0.00 52.0   2.6 45.4   5.4
Windsor-SE (Silk Rd) 9/5/26 0630 48.8   4.0 99   1 48.5   4.3 0.0   0.1 SE | 134 0.3   0.6 0.00 0.00 49.7   4.2 46.5   3.4
Fulton-NW (Ranch 5) 9/5/26 0630 45.6   8.1 3   0 -31.1   5.6 0.0   0.6 N | 0 0.0   2.1 0.00 0.00 50.9   3.4 45.3   4.7
Bisordi (Fulton) 9/5/26 0630 43.7   10.0 96   1 42.5   10.3 0.0   1.0 SW | 226 0.8   1.2 0.00 0.00 49.3   5.0 43.7   5.4
Windsor-South (Laughlin Rd) 9/5/26 0630 48.2   3.7 93   91 46.4   81.2 - - - 0.00 0.00 53.4   3.3 48.0   3.8
Fulton-SE (Barnes Rd) 9/5/26 0630 47.6   7.4 95   1 46.2   7.8 0.0   0.0 N | 0 0.0   0.0 0.00 0.00 52.5   3.5 46.4   5.9
Fulton-SW (Ranch 21) 9/5/26 0630 48.5   4.0 100   100 48.5   108.7 0.0   0.5 N | 0 0.0   1.8 0.00 0.00 51.0   3.1 47.5   2.4
NW Santa Rosa (Piner Road) 9/5/26 0630 48.3   3.8 100   0 48.3   3.8 0.0   0.1 N | 0 0.0   0.9 0.00 0.00 49.5   4.2 46.5   3.1
River Rd South (Denner Ranch) 9/5/26 0630 45.8   4.0 0   0 -70.0   2.2 0.4   0.6 NNE | 27 1.1   0.9 - - 49.7   5.1 45.3   4.0
West Santa Rosa (LOV Vineyard) 8/26/26 0900 53.3   5.2 97   6 52.4   3.5 1.0   0.1 SW | 224 3.6   0.0 0.00 0.00 53.6   5.2 50.2   1.8
Guerneville Rd (Prokopakis) 9/5/26 0630 46.8   5.0 98   0 46.2   5.1 - - - 0.00 0.00 49.8   4.8 45.0   5.2
SunnyView Vineyard (SCWC) 9/5/26 0630 48.9   2.7 96   4 47.7   4.0 0.0   0.0 NE | 47 0.7   0.6 0.00 0.00 49.1   3.2 45.0   3.6
Guerneville Rd West (Balletto) 9/5/26 0630 47.6   4.2 97   1 46.8   4.5 0.0   0.2 N | 0 0.0   1.6 0.00 0.00 50.4   3.7 45.8   4.2
Sanchietti Ranch 9/5/26 0630 50.6   2.0 96   1 49.5   2.1 0.0   0.2 N | 0 0.0   1.2 0.00 0.00 51.2   2.6 46.8   2.5
Occidental Rd (Sebastopol) 9/5/26 0630 49.5   0.5 100   0 49.6   0.5 0.3   0.1 NNW | 334 1.3   0.0 0.00 0.00 50.1   5.3 45.8   2.9
Harper's Rest (Windsor-West) 9/5/26 0630 48.5   3.0 96   0 47.5   3.0 0.1   0.7 WNW | 291 1.1   1.3 0.00 0.00 50.4   2.2 46.8   2.4
Lower Westside Rd (Ranch 12) 9/5/26 0630 46.5   4.4 100   0 46.5   4.4 0.0   2.0 N | 0 0.0   2.9 0.00 0.00 50.4   3.6 45.7   4.1
Guerneville (Laughlin Rd) 9/5/26 0630 49.2   2.9 98   0 48.6   3.1 1.4   0.6 NW | 315 3.4   0.3 0.00 0.00 52.0   3.2 49.2   2.6
Korbel (Winery) 9/5/26 0630 51.2   2.3 100   1 51.2   1.9 0.0   1.4 N | 0 0.0   3.1 0.00 0.00 53.4   2.8 51.1   2.4
Forestville (Shone Farms) 9/5/26 0630 48.0   2.3 97   0 47.2   2.2 0.0   0.0 N | 0 0.0   0.9 0.00 0.00 53.6   4.1 47.1   1.1
Forestville-NE (Ranch 30) 9/5/26 0630 48.7   1.0 100   0 48.6   1.0 0.0   0.0 N | 0 0.0   0.0 0.00 0.00 51.4   3.8 48.5   0.4
Foggy Bend (Ranch 41) 9/5/26 0630 48.9   2.3 97   0 48.1   2.2 0.6   0.9 NNE | 14 1.7   0.9 0.00 0.00 51.5   5.4 48.5   2.6
Last Stop 9/5/26 0630 44.3   4.4 96   1 43.1   4.6 0.0   0.1 N | 0 0.0   1.1 0.00 0.00 49.8   7.6 44.3   3.5
Green Valley Vineyard 9/5/26 0630 46.6   3.1 97   0 45.9   3.0 0.0   0.2 N | 0 0.0   1.8 0.00 0.00 50.8   4.8 46.2   2.8
Park Royal 9/5/26 0630 48.7   3.5 97   1 47.9   3.7 - - - 0.00 0.00 51.1   2.1 47.3   2.0
Merino 9/5/26 0630 45.6   6.7 100   0 45.6   6.8 0.2   0.4 SSW | 212 1.1   0.9 0.00 0.00 48.1   4.4 43.9   4.7
Green Valley (Sanchietti) 9/5/26 0630 42.0   7.9 - - - - - - - 48.6   6.3 41.4   4.8
Keefer Ranch (Green Valley) 9/5/26 0630 44.0   6.1 97   0 43.1   6.1 - - - 0.00 0.00 49.4   5.2 43.6   3.6
Graton-West (Dutton Ranch) 9/5/26 0630 44.3   5.1 100   0 44.3   5.2 0.0   0.1 N | 0 0.0   1.1 0.00 0.00 50.2   5.8 44.0   4.2
Graton-South (Mill Station Rd) 9/5/26 0630 42.2   4.9 97   1 41.4   5.1 0.0   0.0 N | 0 0.0   0.0 0.00 0.00 50.0   5.2 42.0   4.9
Occidental (Horseshoe Bend) 9/5/26 0630 51.6   0.2 95   5 50.3   1.0 - - - 0.00 0.00 53.5   0.5 51.4   0.2
Sexton Valley (Jacqueline's Blk) 9/5/26 0630 42.9   5.5 97   0 42.0   5.6 0.0   0.0 N | 0 0.0   0.0 0.00 0.00 49.9   4.8 42.7   5.3
Sebastopol Hills (Burnside Rd) 9/5/26 0630 51.5   0.3 98   1 50.8   0.7 0.0   0.0 N | 0 0.0   0.0 0.00 0.00 54.7   0.9 51.1   0.6
Pleasant Hill 9/5/26 0630 46.8   1.8 95   0 45.4   1.8 0.1   0.4 SW | 230 0.9   0.2 0.00 0.00 52.5   3.0 46.6   1.9
Seaview/Fort Ross (Hirsch) 9/5/26 0630 52.5   3.3 82   15 47.3   1.2 0.4   0.8 NNE | 12 1.7   1.1 0.00 0.00 55.5   2.9 50.6   1.5
Max     52.5 100 51.2 1.4 - 3.4 0.00 0.00 55.5 51.4
Avg     47.4 91 41.2 0.1 - 0.5 0.00 - - -
Min     42.0 0 -70.0 0.0 - 0.0 0.00 0.00 48.1 41.4